Time;durP1;ratioP1;P1;durP2;ratioP2;P2;SDS_P1;SDS_P2;PMS_P1;PMS_P2;Temp;Humidity;BMP_temperature;BMP_pressure;BME280_temperature;BME280_humidity;BME280_pressure;Samples;Min_cycle;Max_cycle;Signal;HPM_P1;HPM_P2
2023/12/23 00:00:35;;;;;;;4.63;2.93;;;20.90;56.30;;;;;;5090661;28;20231;-68
2023/12/23 00:03:01;;;;;;;4.43;3.30;;;20.90;56.40;;;;;;5090591;28;20516;-67
2023/12/23 00:05:26;;;;;;;5.00;2.80;;;20.90;56.30;;;;;;5090388;28;20241;-68
2023/12/23 00:07:52;;;;;;;4.93;2.73;;;20.90;56.30;;;;;;5089150;28;20201;-68
2023/12/23 00:10:17;;;;;;;3.77;2.40;;;20.90;56.40;;;;;;5089716;28;20173;-68
2023/12/23 00:12:43;;;;;;;4.47;2.57;;;20.90;56.40;;;;;;5090546;28;20196;-68
2023/12/23 00:15:09;;;;;;;4.87;2.73;;;20.90;56.40;;;;;;5090627;28;20170;-68
2023/12/23 00:17:35;;;;;;;4.20;2.30;;;20.90;56.40;;;;;;5090567;28;20213;-67
2023/12/23 00:20:00;;;;;;;2.57;2.13;;;20.90;56.40;;;;;;5089640;28;20481;-68
2023/12/23 00:22:26;;;;;;;5.03;2.30;;;20.80;56.30;;;;;;5089761;28;20248;-68
2023/12/23 00:24:51;;;;;;;3.10;2.30;;;20.90;56.40;;;;;;5088747;28;20189;-68
2023/12/23 00:27:17;;;;;;;5.03;3.13;;;20.80;56.30;;;;;;5088780;28;20185;-68
2023/12/23 00:29:43;;;;;;;4.90;2.37;;;20.90;56.40;;;;;;5088842;28;20257;-68
2023/12/23 00:32:08;;;;;;;3.20;2.60;;;20.80;56.30;;;;;;5088654;28;20264;-68
2023/12/23 00:34:34;;;;;;;3.77;2.00;;;20.80;56.30;;;;;;5088661;28;20177;-68
2023/12/23 00:36:59;;;;;;;4.53;2.50;;;20.80;56.40;;;;;;5088854;28;20672;-68
2023/12/23 00:39:25;;;;;;;3.30;2.23;;;20.80;56.30;;;;;;5090555;28;20166;-68
2023/12/23 00:41:51;;;;;;;2.57;1.80;;;20.80;56.30;;;;;;5090562;28;20239;-68
2023/12/23 00:44:16;;;;;;;3.80;2.37;;;20.80;56.30;;;;;;5090371;28;20173;-69
2023/12/23 00:46:42;;;;;;;4.70;2.10;;;20.90;56.40;;;;;;5090190;28;20204;-68
2023/12/23 00:49:07;;;;;;;2.27;1.93;;;20.80;56.40;;;;;;5090277;28;20596;-68
2023/12/23 00:51:33;;;;;;;4.37;2.20;;;20.80;56.40;;;;;;5090170;28;20637;-68
2023/12/23 00:53:58;;;;;;;3.40;2.40;;;20.80;56.40;;;;;;5090087;28;20544;-67
2023/12/23 00:56:25;;;;;;;4.43;2.40;;;20.80;56.30;;;;;;5090129;28;20201;-68
2023/12/23 00:58:50;;;;;;;2.70;2.00;;;20.80;56.40;;;;;;5090419;28;20192;-68
2023/12/23 01:01:16;;;;;;;3.17;2.20;;;20.80;56.40;;;;;;5090261;28;20391;-68
2023/12/23 01:03:43;;;;;;;3.43;2.30;;;20.80;56.40;;;;;;5090173;28;20181;-68
2023/12/23 01:06:09;;;;;;;3.40;2.37;;;20.80;56.40;;;;;;5089835;28;20190;-68
2023/12/23 01:08:34;;;;;;;3.03;2.07;;;20.80;56.90;;;;;;5091919;28;20528;-68
2023/12/23 01:11:00;;;;;;;6.27;2.50;;;20.80;56.40;;;;;;5090676;28;20184;-68
2023/12/23 01:13:26;;;;;;;4.03;2.30;;;20.80;56.40;;;;;;5092142;28;20181;-68
2023/12/23 01:15:51;;;;;;;3.00;2.10;;;20.80;56.40;;;;;;5092429;28;20213;-68
2023/12/23 01:18:17;;;;;;;3.47;2.30;;;20.80;56.40;;;;;;5092334;28;20197;-68
2023/12/23 01:20:43;;;;;;;3.20;2.40;;;20.80;56.40;;;;;;5092291;28;20174;-68
2023/12/23 01:23:09;;;;;;;3.20;2.03;;;20.80;56.40;;;;;;5092399;28;20707;-68
2023/12/23 01:25:35;;;;;;;3.47;2.20;;;20.80;56.40;;;;;;5093635;28;20178;-68
2023/12/23 01:28:04;;;;;;;4.23;2.07;;;20.80;56.40;;;;;;5093385;28;20504;-68
2023/12/23 01:30:33;;;;;;;3.00;2.20;;;20.80;56.40;;;;;;5093514;28;20158;-68
2023/12/23 01:32:59;;;;;;;3.60;2.10;;;20.80;56.40;;;;;;5093502;28;20399;-68
2023/12/23 01:35:25;;;;;;;2.60;1.83;;;20.80;56.40;;;;;;5093560;28;20414;-68
2023/12/23 01:37:50;;;;;;;3.87;2.00;;;20.80;56.40;;;;;;5093251;28;20193;-68
2023/12/23 01:40:16;;;;;;;3.83;2.07;;;20.80;56.40;;;;;;5093196;28;20901;-67
2023/12/23 01:42:42;;;;;;;2.80;2.40;;;20.80;56.40;;;;;;5093351;28;20177;-68
2023/12/23 01:45:08;;;;;;;3.23;1.83;;;20.80;56.40;;;;;;5093196;28;20282;-68
2023/12/23 01:47:36;;;;;;;5.07;2.30;;;20.80;56.40;;;;;;5093293;28;20681;-68
2023/12/23 01:50:03;;;;;;;2.60;1.83;;;20.80;56.40;;;;;;5093297;28;20944;-68
2023/12/23 01:52:30;;;;;;;3.43;2.20;;;20.80;56.40;;;;;;5093403;28;20993;-68
2023/12/23 01:54:56;;;;;;;3.00;2.27;;;20.80;56.40;;;;;;5093372;28;20468;-69
2023/12/23 01:57:22;;;;;;;3.50;2.40;;;20.80;56.40;;;;;;5092959;28;20424;-68
2023/12/23 01:59:48;;;;;;;2.97;2.00;;;20.80;56.40;;;;;;5092878;28;20783;-68
2023/12/23 02:02:15;;;;;;;3.13;2.43;;;20.80;56.40;;;;;;5092938;28;20170;-68
2023/12/23 02:04:41;;;;;;;2.90;2.33;;;20.80;56.40;;;;;;5092936;28;20492;-68
2023/12/23 02:07:07;;;;;;;3.73;2.60;;;20.80;56.40;;;;;;5092807;28;20434;-68
2023/12/23 02:09:33;;;;;;;3.27;2.20;;;20.80;56.40;;;;;;5092911;28;20443;-68
2023/12/23 02:12:13;;;;;;;3.40;1.90;;;20.80;56.40;;;;;;5092869;28;20170;-68
2023/12/23 02:15:00;;;;;;;2.80;2.20;;;20.80;56.40;;;;;;5092916;28;20150;-68
2023/12/23 02:17:25;;;;;;;3.80;2.20;;;20.80;56.40;;;;;;5092432;28;20519;-68
2023/12/23 02:19:51;;;;;;;4.50;2.17;;;20.80;56.40;;;;;;5092878;28;20487;-68
2023/12/23 02:22:16;;;;;;;3.13;1.83;;;20.80;56.40;;;;;;5092604;28;20170;-68
2023/12/23 02:24:42;;;;;;;3.60;2.57;;;20.70;56.30;;;;;;5092805;28;20286;-68
2023/12/23 02:27:13;;;;;;;2.93;1.93;;;20.70;56.40;;;;;;5092447;28;20193;-68
2023/12/23 02:29:40;;;;;;;4.80;2.20;;;20.70;56.40;;;;;;5092443;28;20189;-68
2023/12/23 02:32:07;;;;;;;3.20;1.80;;;20.70;56.30;;;;;;5092409;28;20404;-68
2023/12/23 02:34:33;;;;;;;2.40;1.90;;;20.70;56.30;;;;;;5092756;28;20411;-69
2023/12/23 02:36:59;;;;;;;3.23;2.20;;;20.70;56.40;;;;;;5092251;28;20423;-68
2023/12/23 02:39:25;;;;;;;2.80;1.90;;;20.70;56.40;;;;;;5092369;28;20407;-68
2023/12/23 02:41:50;;;;;;;3.30;1.90;;;20.80;56.40;;;;;;5092512;28;20545;-68
2023/12/23 02:44:16;;;;;;;3.20;1.90;;;20.70;56.40;;;;;;5092064;28;20175;-68
2023/12/23 02:46:41;;;;;;;2.27;1.63;;;20.70;56.40;;;;;;5092185;28;20601;-67
2023/12/23 02:49:07;;;;;;;2.23;1.57;;;20.70;56.40;;;;;;5092184;28;20201;-68
2023/12/23 02:51:32;;;;;;;3.47;2.20;;;20.70;56.40;;;;;;5092212;28;20205;-68
2023/12/23 02:53:58;;;;;;;2.27;1.60;;;20.70;56.40;;;;;;5092210;28;20235;-68
2023/12/23 02:56:24;;;;;;;4.37;2.87;;;20.70;56.40;;;;;;5092125;28;20196;-68
2023/12/23 02:58:49;;;;;;;2.80;1.47;;;20.70;56.40;;;;;;5092003;28;20200;-68
2023/12/23 03:01:18;;;;;;;3.80;1.93;;;20.70;56.40;;;;;;5089274;28;20181;-68
2023/12/23 03:03:44;;;;;;;3.80;1.80;;;20.70;56.40;;;;;;5090756;28;20178;-68
2023/12/23 03:06:13;;;;;;;2.93;2.20;;;20.70;56.40;;;;;;5091898;28;20937;-68
2023/12/23 03:08:38;;;;;;;2.43;1.93;;;20.70;56.40;;;;;;5091680;28;20197;-68
2023/12/23 03:11:04;;;;;;;1.73;1.50;;;20.70;56.40;;;;;;5091722;28;20408;-68
2023/12/23 03:13:30;;;;;;;3.80;2.00;;;20.70;56.40;;;;;;5091588;28;20174;-68
2023/12/23 03:15:55;;;;;;;2.13;1.50;;;20.70;56.40;;;;;;5091774;28;20174;-68
2023/12/23 03:18:21;;;;;;;2.60;1.73;;;20.70;56.40;;;;;;5091428;28;20212;-68
2023/12/23 03:20:47;;;;;;;2.83;1.80;;;20.70;56.40;;;;;;5091518;28;20177;-67
2023/12/23 03:23:13;;;;;;;2.43;2.10;;;20.70;56.40;;;;;;5091510;28;20583;-68
2023/12/23 03:25:38;;;;;;;2.50;1.70;;;20.70;56.40;;;;;;5091436;28;20474;-68
2023/12/23 03:28:04;;;;;;;3.30;1.80;;;20.70;56.40;;;;;;5091310;28;20212;-67
2023/12/23 03:30:30;;;;;;;2.80;1.97;;;20.70;56.40;;;;;;5090768;28;20209;-68
2023/12/23 03:32:55;;;;;;;3.23;1.80;;;20.70;56.40;;;;;;5091592;28;20170;-68
2023/12/23 03:35:21;;;;;;;2.93;1.50;;;20.70;56.40;;;;;;5091593;28;20174;-69
2023/12/23 03:37:47;;;;;;;3.07;1.60;;;20.70;56.40;;;;;;5091289;28;20200;-68
2023/12/23 03:40:13;;;;;;;2.80;1.70;;;20.70;56.40;;;;;;5091355;28;20932;-69
2023/12/23 03:42:40;;;;;;;2.50;1.63;;;20.70;56.40;;;;;;5091553;28;20178;-68
2023/12/23 03:45:07;;;;;;;3.17;1.70;;;20.70;56.40;;;;;;5091147;28;20177;-69
2023/12/23 03:47:34;;;;;;;2.77;1.80;;;20.70;56.40;;;;;;5090950;28;20427;-68
2023/12/23 03:50:00;;;;;;;2.87;1.77;;;20.70;56.40;;;;;;5090979;28;20419;-68
2023/12/23 03:52:25;;;;;;;3.43;1.83;;;20.70;57.00;;;;;;5091205;28;20410;-68
2023/12/23 03:54:51;;;;;;;2.40;1.70;;;20.70;56.40;;;;;;5091177;28;20412;-68
2023/12/23 03:57:17;;;;;;;2.60;1.37;;;20.70;56.40;;;;;;5090709;28;20189;-69
2023/12/23 03:59:42;;;;;;;3.07;2.00;;;20.70;56.40;;;;;;5091144;28;20182;-68
2023/12/23 04:02:08;;;;;;;2.47;1.77;;;20.60;56.30;;;;;;5091080;28;20216;-69
2023/12/23 04:04:38;;;;;;;2.60;1.60;;;20.70;56.40;;;;;;5091158;28;20186;-67
2023/12/23 04:07:03;;;;;;;3.00;2.03;;;20.70;56.40;;;;;;5090821;28;20193;-69
2023/12/23 04:09:29;;;;;;;2.47;1.97;;;20.60;56.30;;;;;;5090689;28;20508;-68
2023/12/23 04:11:55;;;;;;;2.30;1.83;;;20.70;56.40;;;;;;5090779;28;20173;-68
2023/12/23 04:14:21;;;;;;;3.13;1.90;;;20.70;56.40;;;;;;5090665;28;20535;-68
2023/12/23 04:16:47;;;;;;;3.00;1.63;;;20.60;56.30;;;;;;5090831;28;20480;-68
2023/12/23 04:19:12;;;;;;;2.10;1.50;;;20.70;56.40;;;;;;5091072;28;20213;-68
2023/12/23 04:21:38;;;;;;;3.07;2.30;;;20.60;56.30;;;;;;5090784;28;20181;-68
2023/12/23 04:24:04;;;;;;;2.07;1.43;;;20.70;56.40;;;;;;5090660;28;20184;-68
2023/12/23 04:26:31;;;;;;;2.60;1.77;;;20.60;56.30;;;;;;5090620;28;20216;-68
2023/12/23 04:28:56;;;;;;;2.57;1.73;;;20.60;56.90;;;;;;5090499;28;20189;-68
2023/12/23 04:31:22;;;;;;;2.47;1.70;;;20.70;56.50;;;;;;5090721;28;20406;-68
2023/12/23 04:33:48;;;;;;;2.20;1.57;;;20.60;56.30;;;;;;5090576;28;20201;-69
2023/12/23 04:36:14;;;;;;;4.20;1.80;;;20.60;56.40;;;;;;5090375;28;20568;-67
2023/12/23 04:38:39;;;;;;;3.03;2.33;;;20.60;56.30;;;;;;5090777;28;20188;-68
2023/12/23 04:41:06;;;;;;;1.90;1.57;;;20.60;56.40;;;;;;5089055;28;20185;-68
2023/12/23 04:43:31;;;;;;;2.10;1.30;;;20.60;56.40;;;;;;5094304;28;20256;-68
2023/12/23 04:45:58;;;;;;;2.43;1.60;;;20.60;56.30;;;;;;5094723;28;20854;-68
2023/12/23 04:48:25;;;;;;;2.80;1.43;;;20.60;56.40;;;;;;5094392;28;20197;-68
2023/12/23 04:50:50;;;;;;;2.93;1.70;;;20.60;56.40;;;;;;5094459;28;20456;-68
2023/12/23 04:53:17;;;;;;;2.77;1.50;;;20.60;56.40;;;;;;5094264;28;20408;-68
2023/12/23 04:55:43;;;;;;;2.23;1.50;;;20.60;56.30;;;;;;5094739;28;20170;-68
2023/12/23 04:58:08;;;;;;;2.30;1.50;;;20.60;56.40;;;;;;5094185;28;20455;-68
2023/12/23 05:00:34;;;;;;;2.33;1.60;;;20.60;56.30;;;;;;5094360;28;20922;-68
2023/12/23 05:02:59;;;;;;;2.10;1.57;;;20.60;56.40;;;;;;5094424;28;20190;-68
2023/12/23 05:05:25;;;;;;;3.50;2.00;;;20.60;56.40;;;;;;5094099;28;20169;-68
2023/12/23 05:07:51;;;;;;;2.50;1.80;;;20.60;56.40;;;;;;5092620;28;20197;-68
2023/12/23 05:10:16;;;;;;;2.10;1.50;;;20.60;56.40;;;;;;5094157;28;20162;-68
2023/12/23 05:12:42;;;;;;;2.20;1.70;;;20.60;56.90;;;;;;5094025;28;20200;-68
2023/12/23 05:15:08;;;;;;;2.70;1.63;;;20.60;56.90;;;;;;5093993;28;20178;-68
2023/12/23 05:17:33;;;;;;;1.77;1.33;;;20.60;56.40;;;;;;5093751;28;20213;-68
2023/12/23 05:19:59;;;;;;;2.20;1.80;;;20.60;56.40;;;;;;5094162;28;20767;-69
2023/12/23 05:22:25;;;;;;;2.00;1.30;;;20.60;56.40;;;;;;5092578;28;20180;-68
2023/12/23 05:24:50;;;;;;;2.30;1.60;;;20.60;56.40;;;;;;5093801;28;20177;-68
2023/12/23 05:27:16;;;;;;;2.40;1.50;;;20.60;56.40;;;;;;5093586;28;20189;-68
2023/12/23 05:29:42;;;;;;;1.40;1.20;;;20.60;56.40;;;;;;5093453;28;20206;-68
2023/12/23 05:32:08;;;;;;;2.27;1.23;;;20.60;56.40;;;;;;5093702;28;20877;-68
2023/12/23 05:34:33;;;;;;;2.90;1.53;;;20.60;56.40;;;;;;5093555;28;20433;-68
2023/12/23 05:36:59;;;;;;;2.00;1.50;;;20.60;56.40;;;;;;5093372;28;20193;-68
2023/12/23 05:39:25;;;;;;;1.97;1.30;;;20.60;56.40;;;;;;5093479;28;20522;-68
2023/12/23 05:41:50;;;;;;;3.50;1.77;;;20.60;56.40;;;;;;5093480;28;20215;-68
2023/12/23 05:44:16;;;;;;;2.20;1.53;;;20.60;56.40;;;;;;5093556;28;20610;-68
2023/12/23 05:46:42;;;;;;;2.83;1.37;;;20.60;56.40;;;;;;5093361;28;20202;-68
2023/12/23 05:49:07;;;;;;;3.23;1.50;;;20.60;56.40;;;;;;5093409;28;20288;-68
2023/12/23 05:51:34;;;;;;;1.50;1.30;;;20.60;56.50;;;;;;5093500;28;20545;-68
2023/12/23 05:53:59;;;;;;;1.60;1.37;;;20.60;56.40;;;;;;5092688;28;20185;-67
2023/12/23 05:56:25;;;;;;;3.20;1.60;;;20.60;56.40;;;;;;5093420;28;20450;-68
2023/12/23 05:58:50;;;;;;;2.10;1.43;;;20.60;56.40;;;;;;5093288;28;20181;-68
2023/12/23 06:01:17;;;;;;;2.77;1.73;;;20.60;56.40;;;;;;5092949;28;20226;-69
2023/12/23 06:03:43;;;;;;;3.13;1.90;;;20.50;56.40;;;;;;5091568;28;20916;-69
2023/12/23 06:06:09;;;;;;;1.77;1.33;;;20.50;56.40;;;;;;5093281;28;20412;-67
2023/12/23 06:08:34;;;;;;;2.83;1.63;;;20.60;56.40;;;;;;5093042;28;20197;-69
2023/12/23 06:11:00;;;;;;;1.97;1.30;;;20.50;56.40;;;;;;5093072;28;20480;-68
2023/12/23 06:13:26;;;;;;;2.27;1.60;;;20.50;56.40;;;;;;5092831;28;20181;-68
2023/12/23 06:15:51;;;;;;;2.00;1.27;;;20.50;56.90;;;;;;5092888;28;20754;-68
2023/12/23 06:18:17;;;;;;;1.90;1.30;;;20.50;56.40;;;;;;5092549;28;20213;-68
2023/12/23 06:20:42;;;;;;;2.33;1.33;;;20.50;56.40;;;;;;5092962;28;20224;-68
2023/12/23 06:23:08;;;;;;;4.43;1.53;;;20.50;56.40;;;;;;5092636;28;20181;-69
2023/12/23 06:25:34;;;;;;;2.40;1.50;;;20.50;56.40;;;;;;5092670;28;20575;-68
2023/12/23 06:27:59;;;;;;;2.03;1.77;;;20.50;56.40;;;;;;5092354;28;20217;-68
2023/12/23 06:30:25;;;;;;;1.70;1.30;;;20.50;56.40;;;;;;5092453;28;20173;-68
2023/12/23 06:32:51;;;;;;;2.80;1.40;;;20.50;56.40;;;;;;5092462;28;20174;-68
2023/12/23 06:35:18;;;;;;;2.00;1.10;;;20.50;56.40;;;;;;5092479;28;20429;-68
2023/12/23 06:37:44;;;;;;;1.97;1.33;;;20.50;56.40;;;;;;5092587;28;20556;-68
2023/12/23 06:40:10;;;;;;;1.70;1.50;;;20.50;56.30;;;;;;5092467;28;20411;-69
2023/12/23 06:42:35;;;;;;;1.90;1.50;;;20.60;56.40;;;;;;5092315;28;20264;-68
2023/12/23 06:45:01;;;;;;;1.93;1.37;;;20.60;56.40;;;;;;5092454;28;20549;-68
2023/12/23 06:47:26;;;;;;;2.10;1.70;;;20.50;56.30;;;;;;5092011;28;20190;-67
2023/12/23 06:49:52;;;;;;;2.80;1.10;;;20.50;56.30;;;;;;5092108;28;20205;-68
2023/12/23 06:52:17;;;;;;;1.73;1.30;;;20.60;56.40;;;;;;5090485;28;20766;-68
2023/12/23 06:54:43;;;;;;;1.90;1.00;;;20.60;56.40;;;;;;5091969;28;20177;-69
2023/12/23 06:57:09;;;;;;;1.90;1.17;;;20.60;56.40;;;;;;5092071;28;20194;-68
2023/12/23 06:59:34;;;;;;;2.00;1.40;;;20.60;56.40;;;;;;5091990;28;20250;-68
2023/12/23 07:02:00;;;;;;;2.03;1.60;;;20.60;56.40;;;;;;5091878;28;20415;-69
2023/12/23 07:04:26;;;;;;;1.20;1.00;;;20.60;56.40;;;;;;5090993;28;20630;-68
2023/12/23 07:06:51;;;;;;;2.37;1.50;;;20.60;56.40;;;;;;5091800;28;20285;-68
2023/12/23 07:09:17;;;;;;;1.80;1.13;;;20.60;56.40;;;;;;5091979;28;20204;-68
2023/12/23 07:11:43;;;;;;;1.90;1.20;;;20.60;56.40;;;;;;5091844;28;20270;-68
2023/12/23 07:14:08;;;;;;;1.93;1.17;;;20.70;56.40;;;;;;5092181;28;20181;-68
2023/12/23 07:16:34;;;;;;;2.77;1.70;;;20.70;56.40;;;;;;5091553;28;20664;-68
2023/12/23 07:19:00;;;;;;;1.90;1.40;;;20.70;56.40;;;;;;5091390;28;20247;-68
2023/12/23 07:21:25;;;;;;;2.03;1.27;;;20.70;56.40;;;;;;5091780;28;20173;-68
2023/12/23 07:23:51;;;;;;;1.97;1.20;;;20.70;56.50;;;;;;5091736;28;20248;-68
2023/12/23 07:26:17;;;;;;;2.80;1.20;;;20.70;56.40;;;;;;5091367;28;20177;-68
2023/12/23 07:28:42;;;;;;;2.37;1.40;;;20.70;56.40;;;;;;5091472;28;20193;-68
2023/12/23 07:31:08;;;;;;;1.43;1.30;;;20.70;56.40;;;;;;5091437;28;20231;-68
2023/12/23 07:33:33;;;;;;;2.33;1.30;;;20.70;56.40;;;;;;5091304;28;20173;-68
2023/12/23 07:35:59;;;;;;;2.47;1.30;;;20.80;56.40;;;;;;5091402;28;20182;-68
2023/12/23 07:38:25;;;;;;;1.50;1.00;;;20.70;56.40;;;;;;5090942;28;20220;-68
2023/12/23 07:40:50;;;;;;;1.80;1.27;;;20.70;56.40;;;;;;5091051;28;20173;-68
2023/12/23 07:43:16;;;;;;;1.70;1.27;;;20.70;56.40;;;;;;5091194;28;20180;-68
2023/12/23 07:45:42;;;;;;;1.33;1.10;;;20.80;56.50;;;;;;5091252;28;20174;-69
2023/12/23 07:48:08;;;;;;;1.90;1.30;;;20.80;56.40;;;;;;5090774;28;20284;-69
2023/12/23 07:50:34;;;;;;;3.00;1.53;;;20.80;56.40;;;;;;5091076;28;20492;-68
2023/12/23 07:52:59;;;;;;;1.73;1.03;;;20.80;56.40;;;;;;5091037;28;20181;-69
2023/12/23 07:55:26;;;;;;;1.73;1.20;;;20.80;56.40;;;;;;5090821;28;20268;-69
2023/12/23 07:57:52;;;;;;;3.07;1.57;;;20.80;56.40;;;;;;5090920;28;20193;-69
2023/12/23 08:00:18;;;;;;;1.53;1.00;;;20.80;56.40;;;;;;5091283;28;20468;-69
2023/12/23 08:02:43;;;;;;;1.83;1.27;;;20.80;56.40;;;;;;5091052;28;20835;-68
2023/12/23 08:05:09;;;;;;;1.97;1.20;;;20.80;56.40;;;;;;5091035;28;20207;-68
2023/12/23 08:07:36;;;;;;;2.00;1.10;;;20.80;56.40;;;;;;5091128;28;20197;-69
2023/12/23 08:10:02;;;;;;;1.73;1.10;;;20.80;56.40;;;;;;5091149;28;20587;-67
2023/12/23 08:12:28;;;;;;;1.90;1.23;;;20.80;56.40;;;;;;5090842;28;20496;-69
2023/12/23 08:14:53;;;;;;;1.43;1.00;;;20.80;56.40;;;;;;5091034;28;20446;-69
2023/12/23 08:17:19;;;;;;;2.10;1.67;;;20.80;56.40;;;;;;5090496;28;20240;-67
2023/12/23 08:19:45;;;;;;;2.60;1.20;;;20.80;56.40;;;;;;5090899;28;20170;-69
2023/12/23 08:22:10;;;;;;;1.30;1.00;;;20.80;56.40;;;;;;5090755;28;20176;-68
2023/12/23 08:24:36;;;;;;;1.83;1.47;;;20.80;56.40;;;;;;5089300;28;20200;-68
2023/12/23 08:27:01;;;;;;;1.33;1.03;;;20.80;56.40;;;;;;5090694;28;20197;-68
2023/12/23 08:29:27;;;;;;;4.83;1.43;;;20.80;56.40;;;;;;5090305;28;20280;-68
2023/12/23 08:31:53;;;;;;;1.83;1.57;;;20.80;56.40;;;;;;5090517;28;20197;-68
2023/12/23 08:34:18;;;;;;;1.50;1.13;;;20.80;56.40;;;;;;5090727;28;20214;-68
2023/12/23 08:36:44;;;;;;;1.63;1.03;;;20.90;56.50;;;;;;5090458;28;20189;-68
2023/12/23 08:39:10;;;;;;;2.30;1.50;;;20.90;56.50;;;;;;5090794;28;20261;-69
2023/12/23 08:41:36;;;;;;;2.70;1.10;;;20.80;56.40;;;;;;5090493;28;20189;-69
2023/12/23 08:44:02;;;;;;;1.80;1.17;;;20.90;56.50;;;;;;5090515;28;20260;-68
2023/12/23 08:46:29;;;;;;;3.70;1.70;;;20.90;56.50;;;;;;5090730;28;20185;-69
2023/12/23 08:48:54;;;;;;;2.13;1.30;;;20.90;56.50;;;;;;5090292;28;20454;-69
2023/12/23 08:51:20;;;;;;;2.33;1.50;;;20.90;56.50;;;;;;5090544;28;20515;-68
2023/12/23 08:53:46;;;;;;;2.53;1.43;;;20.90;56.50;;;;;;5090812;28;20184;-69
2023/12/23 08:56:11;;;;;;;3.03;1.90;;;20.90;56.50;;;;;;5090300;28;20576;-69
2023/12/23 08:58:37;;;;;;;1.90;1.40;;;20.90;56.50;;;;;;5090483;28;20280;-69
2023/12/23 09:01:03;;;;;;;2.30;1.57;;;20.90;56.50;;;;;;5090327;28;20188;-69
2023/12/23 09:03:30;;;;;;;1.87;1.57;;;20.90;56.50;;;;;;5090371;28;20180;-69
2023/12/23 09:05:57;;;;;;;2.37;1.87;;;20.90;56.50;;;;;;5090351;28;20235;-68
2023/12/23 09:08:22;;;;;;;3.40;1.70;;;20.90;56.60;;;;;;5090444;28;21000;-68
2023/12/23 09:10:48;;;;;;;3.47;2.20;;;20.90;56.50;;;;;;5090488;28;20408;-68
2023/12/23 09:13:14;;;;;;;7.27;2.77;;;20.90;57.00;;;;;;5090495;28;20172;-68
2023/12/23 09:15:40;;;;;;;3.13;2.03;;;20.90;56.50;;;;;;5090242;28;20173;-68
2023/12/23 09:18:05;;;;;;;3.10;1.70;;;20.90;56.50;;;;;;5089842;28;20550;-68
2023/12/23 09:20:31;;;;;;;2.80;1.93;;;20.90;56.50;;;;;;5090273;28;20185;-68
2023/12/23 09:22:57;;;;;;;3.60;2.10;;;20.90;56.50;;;;;;5090582;28;20207;-68
2023/12/23 09:25:23;;;;;;;2.93;2.50;;;20.90;56.60;;;;;;5090299;28;20177;-69
2023/12/23 09:27:48;;;;;;;3.80;2.63;;;20.90;56.60;;;;;;5091358;28;20242;-69
2023/12/23 09:30:15;;;;;;;4.77;3.20;;;20.90;56.60;;;;;;5093922;28;20265;-69
2023/12/23 09:32:40;;;;;;;5.33;2.00;;;20.90;56.60;;;;;;5094156;28;20205;-68
2023/12/23 09:35:06;;;;;;;3.20;2.50;;;20.90;56.60;;;;;;5093958;28;20446;-68
2023/12/23 09:37:32;;;;;;;2.90;2.40;;;20.90;56.60;;;;;;5093977;28;20322;-69
2023/12/23 09:39:59;;;;;;;6.13;3.23;;;20.90;56.60;;;;;;5092407;28;20173;-69
2023/12/23 09:42:25;;;;;;;5.03;2.70;;;20.90;56.60;;;;;;5093864;28;20166;-69
2023/12/23 09:44:51;;;;;;;4.40;2.60;;;20.90;56.60;;;;;;5093665;28;20835;-68
2023/12/23 09:47:17;;;;;;;3.70;2.50;;;20.90;56.70;;;;;;5093600;28;20689;-69
2023/12/23 09:49:43;;;;;;;4.77;2.57;;;20.90;56.70;;;;;;5092776;28;20239;-69
2023/12/23 09:52:11;;;;;;;11.17;3.17;;;20.90;56.70;;;;;;5091845;28;21043;-70
2023/12/23 09:54:40;;;;;;;4.47;3.27;;;20.90;56.70;;;;;;5093355;28;20223;-69
2023/12/23 09:57:07;;;;;;;5.40;2.90;;;20.90;56.70;;;;;;5093159;28;20435;-69
2023/12/23 09:59:34;;;;;;;5.20;2.90;;;20.90;56.70;;;;;;5093214;28;20407;-69
2023/12/23 10:02:00;;;;;;;5.70;3.20;;;20.90;56.70;;;;;;5092791;28;20407;-69
2023/12/23 10:04:27;;;;;;;4.60;3.40;;;20.90;56.80;;;;;;5091685;28;20422;-69
2023/12/23 10:06:53;;;;;;;3.93;2.80;;;20.90;56.70;;;;;;5092647;28;20190;-69
2023/12/23 10:09:18;;;;;;;7.17;3.57;;;20.90;56.70;;;;;;5092794;28;20450;-68
2023/12/23 10:11:44;;;;;;;6.90;3.53;;;20.90;56.70;;;;;;5092988;28;20257;-69
2023/12/23 10:14:11;;;;;;;7.10;3.60;;;20.90;56.70;;;;;;5092722;28;20166;-69
2023/12/23 10:16:36;;;;;;;6.10;3.13;;;20.90;56.70;;;;;;5092638;28;20281;-70
2023/12/23 10:19:04;;;;;;;4.80;3.40;;;20.90;56.70;;;;;;5092825;28;20451;-69
2023/12/23 10:21:31;;;;;;;5.00;3.27;;;20.90;56.70;;;;;;5092425;28;20415;-68
2023/12/23 10:23:57;;;;;;;6.03;3.23;;;20.90;56.70;;;;;;5092452;28;20865;-69
2023/12/23 10:26:23;;;;;;;3.40;2.63;;;20.90;56.80;;;;;;5091205;28;20507;-69
2023/12/23 10:28:53;;;;;;;4.83;3.30;;;20.90;56.70;;;;;;5092631;28;20769;-69
2023/12/23 10:31:21;;;;;;;6.17;3.43;;;20.90;56.70;;;;;;5092231;28;20415;-68
2023/12/23 10:33:54;;;;;;;6.10;3.50;;;20.90;56.70;;;;;;5092139;28;20499;-69
2023/12/23 10:36:20;;;;;;;6.27;3.23;;;20.90;56.70;;;;;;5092278;28;20396;-69
2023/12/23 10:38:52;;;;;;;8.03;3.60;;;20.90;56.70;;;;;;5092297;28;20416;-69
2023/12/23 10:41:36;;;;;;;7.90;4.07;;;20.90;56.70;;;;;;5092355;28;20154;-69
2023/12/23 10:44:04;;;;;;;9.47;4.00;;;20.90;56.70;;;;;;5092430;28;20844;-69
2023/12/23 10:46:32;;;;;;;6.67;3.60;;;20.90;56.70;;;;;;5092117;28;20432;-69
2023/12/23 10:48:58;;;;;;;6.50;3.83;;;20.90;56.70;;;;;;5092301;28;20550;-69
2023/12/23 10:51:24;;;;;;;4.80;2.97;;;20.90;56.70;;;;;;5092143;28;20414;-69
2023/12/23 10:53:53;;;;;;;5.17;3.13;;;20.90;56.70;;;;;;5091933;28;20412;-69
2023/12/23 10:56:20;;;;;;;5.00;3.43;;;20.90;56.70;;;;;;5091819;28;20608;-69
2023/12/23 10:58:45;;;;;;;6.10;3.70;;;20.90;56.70;;;;;;5091923;28;20419;-69
2023/12/23 11:01:13;;;;;;;6.07;3.37;;;20.90;56.70;;;;;;5091847;28;20791;-69
2023/12/23 11:03:39;;;;;;;7.40;4.13;;;20.90;56.70;;;;;;5091868;28;20556;-69
2023/12/23 11:06:07;;;;;;;6.97;4.57;;;21.00;57.30;;;;;;5091677;28;20416;-69
2023/12/23 11:08:33;;;;;;;6.20;3.20;;;20.90;56.70;;;;;;5091581;28;20459;-69
2023/12/23 11:10:59;;;;;;;8.47;3.80;;;20.90;56.70;;;;;;5091832;28;20464;-69
2023/12/23 11:13:26;;;;;;;5.37;3.47;;;21.00;56.80;;;;;;5090233;28;20408;-69
2023/12/23 11:15:53;;;;;;;6.77;3.70;;;21.00;56.80;;;;;;5091474;28;20452;-69
2023/12/23 11:18:21;;;;;;;6.53;3.50;;;20.90;56.60;;;;;;5091405;28;20456;-69
2023/12/23 11:20:49;;;;;;;5.80;3.33;;;21.00;56.70;;;;;;5091377;28;20841;-69
2023/12/23 11:23:30;;;;;;;10.87;3.63;;;20.90;56.60;;;;;;5091364;28;20419;-69
2023/12/23 11:25:56;;;;;;;4.83;3.27;;;21.00;56.70;;;;;;5091196;28;20407;-69
2023/12/23 11:28:24;;;;;;;7.77;3.17;;;20.90;56.60;;;;;;5091415;28;20541;-69
2023/12/23 11:30:57;;;;;;;6.17;4.40;;;21.00;56.70;;;;;;5091020;28;20783;-68
2023/12/23 11:33:25;;;;;;;6.77;4.53;;;21.00;56.70;;;;;;5091022;28;20396;-69
2023/12/23 11:35:53;;;;;;;8.27;4.17;;;21.00;56.70;;;;;;5091257;28;20544;-69
2023/12/23 11:38:22;;;;;;;6.30;3.60;;;21.00;56.70;;;;;;5091194;28;20444;-69
2023/12/23 11:40:52;;;;;;;6.80;3.63;;;21.00;56.70;;;;;;5091078;28;20416;-69
2023/12/23 11:43:17;;;;;;;10.80;3.50;;;21.00;56.80;;;;;;5089618;28;20427;-69
2023/12/23 11:45:44;;;;;;;8.63;3.90;;;21.00;56.70;;;;;;5091174;28;20784;-70
2023/12/23 11:48:10;;;;;;;7.83;4.60;;;21.00;56.70;;;;;;5090617;28;20194;-70
2023/12/23 11:50:36;;;;;;;6.47;3.20;;;21.00;56.80;;;;;;5090283;28;20404;-70
2023/12/23 11:53:02;;;;;;;7.13;3.73;;;21.00;56.70;;;;;;5090869;28;20568;-69
2023/12/23 11:55:28;;;;;;;8.50;4.00;;;21.00;56.80;;;;;;5090983;28;20601;-70
2023/12/23 11:57:54;;;;;;;9.20;4.40;;;21.00;56.80;;;;;;5090459;28;20196;-69
2023/12/23 12:00:20;;;;;;;10.00;3.87;;;21.00;56.80;;;;;;5091545;28;20415;-71
2023/12/23 12:02:46;;;;;;;9.00;5.13;;;21.00;56.80;;;;;;5089826;28;20407;-69
2023/12/23 12:05:12;;;;;;;10.30;5.60;;;21.00;56.70;;;;;;5090983;28;20165;-69
2023/12/23 12:07:38;;;;;;;8.47;4.80;;;21.10;56.70;;;;;;5090991;28;21037;-69
2023/12/23 12:10:04;;;;;;;8.57;4.43;;;21.00;56.70;;;;;;5091319;28;20201;-69
2023/12/23 12:12:30;;;;;;;8.47;4.43;;;21.00;56.70;;;;;;5091346;28;20400;-69
2023/12/23 12:14:55;;;;;;;7.60;4.20;;;21.00;56.70;;;;;;5091226;28;20408;-70
2023/12/23 12:17:21;;;;;;;11.73;4.90;;;21.10;56.90;;;;;;5091127;28;20221;-69
2023/12/23 12:19:47;;;;;;;10.83;5.43;;;21.00;56.70;;;;;;5079400;28;20197;-70
2023/12/23 12:22:13;;;;;;;7.83;4.37;;;21.00;56.70;;;;;;5070551;28;20265;-68
2023/12/23 12:24:39;;;;;;;8.13;4.47;;;21.10;56.80;;;;;;5068824;28;20556;-70
2023/12/23 12:27:04;;;;;;;13.50;5.10;;;21.00;56.80;;;;;;5068924;28;20201;-69
2023/12/23 12:29:30;;;;;;;11.10;5.40;;;21.10;56.80;;;;;;5070645;28;20451;-71
2023/12/23 12:31:59;;;;;;;9.83;5.23;;;21.00;56.70;;;;;;5071470;28;20228;-70
2023/12/23 12:34:26;;;;;;;6.97;4.80;;;21.10;56.80;;;;;;5070811;28;20206;-70
2023/12/23 12:36:51;;;;;;;10.33;5.17;;;21.10;56.90;;;;;;5071187;28;20485;-70
2023/12/23 12:39:19;;;;;;;10.13;5.03;;;21.00;56.80;;;;;;5072148;28;20839;-70